| time (UTC) | temp F | wind direction | speed MPH | gust MPH | rain 1hr in | rain 24hr in | rain mn in | humidity % | barometer mb |
| 20260906100508 | 58 | 1 | 0.0 | 0.0 | 0.03 | 0.34 | 0.18 | 96 | 1015.1 |
| 20260906100029 | 58 | 352 | 0.0 | 0.0 | 0.03 | 0.34 | 0.18 | 96 | 1015.0 |
| 20260906095513 | 58 | 1 | 0.0 | 0.0 | 0.03 | 0.34 | 0.18 | 97 | 1014.9 |
| 20260906095013 | 58 | 353 | 0.0 | 0.0 | 0.04 | 0.34 | 0.18 | 96 | 1014.8 |
| 20260906094553 | 58 | 353 | 0.0 | 0.0 | 0.04 | 0.34 | 0.18 | 96 | 1014.7 |
| 20260906094012 | 58 | 353 | 0.0 | 0.0 | 0.03 | 0.33 | 0.17 | 96 | 1014.8 |
| 20260906093514 | 58 | 351 | 0.0 | 0.0 | 0.03 | 0.33 | 0.17 | 97 | 1014.7 |
| 20260906093014 | 58 | 348 | 0.0 | 0.0 | 0.02 | 0.32 | 0.16 | 96 | 1014.7 |
| 20260906092504 | 58 | 347 | 0.0 | 0.0 | 0.02 | 0.32 | 0.16 | 96 | 1014.8 |
| 20260906092006 | 58 | 359 | 0.0 | 0.0 | 0.02 | 0.32 | 0.16 | 96 | 1014.7 |
| 20260906091512 | 58 | 349 | 0.0 | 0.0 | 0.03 | 0.32 | 0.16 | 96 | 1014.5 |
| 20260906091004 | 58 | 349 | 0.0 | 0.0 | 0.03 | 0.33 | 0.16 | 96 | 1014.4 |
| 20260906090504 | 58 | 4 | 0.0 | 0.0 | 0.02 | 0.32 | 0.15 | 96 | 1014.5 |
| 20260906090024 | 58 | 347 | 0.0 | 0.0 | 0.02 | 0.32 | 0.15 | 96 | 1014.6 |
| 20260906085510 | 58 | 345 | 0.0 | 0.0 | 0.02 | 0.32 | 0.15 | 96 | 1014.6 |
| 20260906085010 | 58 | 352 | 0.0 | 0.0 | 0.01 | 0.31 | 0.14 | 96 | 1014.4 |
| 20260906084526 | 59 | 352 | 0.0 | 0.0 | 0.01 | 0.31 | 0.14 | 97 | 1014.5 |
| 20260906084011 | 59 | 349 | 0.0 | 0.0 | 0.01 | 0.31 | 0.14 | 97 | 1014.5 |
| 20260906083514 | 58 | 352 | 0.0 | 0.0 | 0.01 | 0.31 | 0.14 | 96 | 1014.4 |
| 20260906083043 | 59 | 354 | 0.0 | 0.0 | 0.01 | 0.31 | 0.14 | 97 | 1014.4 |
| 20260906082514 | 59 | 357 | 0.0 | 0.0 | 0.01 | 0.31 | 0.14 | 96 | 1014.3 |
| 20260906082017 | 59 | 342 | 0.0 | 0.0 | 0.01 | 0.31 | 0.14 | 96 | 1014.3 |
| 20260906081512 | 59 | 337 | 0.0 | 0.0 | 0.01 | 0.30 | 0.13 | 97 | 1014.4 |
| 20260906081004 | 59 | 336 | 0.0 | 0.0 | 0.01 | 0.30 | 0.13 | 96 | 1014.3 |
| 20260906080505 | 59 | 337 | 0.0 | 0.0 | 0.01 | 0.30 | 0.13 | 96 | 1014.2 |
| 20260906080016 | 59 | 337 | 0.0 | 0.0 | 0.01 | 0.30 | 0.13 | 96 | 1014.1 |
| 20260906075506 | 59 | 337 | 0.0 | 0.0 | 0.02 | 0.30 | 0.13 | 96 | 1014.2 |
| 20260906075007 | 59 | 337 | 0.0 | 0.0 | 0.02 | 0.30 | 0.13 | 96 | 1014.2 |
| 20260906074527 | 59 | 352 | 0.0 | 0.0 | 0.02 | 0.30 | 0.13 | 96 | 1014.3 |
| 20260906074012 | 59 | 352 | 0.0 | 0.0 | 0.02 | 0.30 | 0.13 | 96 | 1014.2 |
| 20260906073509 | 59 | 352 | 0.0 | 2.0 | 0.02 | 0.30 | 0.13 | 96 | 1014.3 |
| 20260906073028 | 59 | 350 | 0.0 | 2.0 | 0.02 | 0.30 | 0.13 | 96 | 1014.4 |
| 20260906072511 | 59 | 340 | 0.0 | 2.0 | 0.02 | 0.30 | 0.13 | 96 | 1014.3 |
| 20260906072015 | 59 | 359 | 0.0 | 0.0 | 0.02 | 0.30 | 0.13 | 96 | 1014.3 |
| 20260906071530 | 59 | 333 | 0.0 | 0.0 | 0.01 | 0.29 | 0.12 | 96 | 1014.2 |
| 20260906071016 | 59 | 349 | 0.0 | 0.0 | 0.01 | 0.29 | 0.12 | 96 | 1014.2 |
| 20260906070518 | 59 | 348 | 0.0 | 0.0 | 0.01 | 0.29 | 0.12 | 96 | 1014.2 |
| 20260906070034 | 59 | 348 | 0.0 | 0.0 | 0.02 | 0.29 | 0.12 | 96 | 1014.2 |
| 20260906065503 | 59 | 342 | 0.0 | 0.0 | 0.01 | 0.28 | 0.11 | 96 | 1014.3 |
| 20260906065007 | 59 | 241 | 0.0 | 0.0 | 0.02 | 0.28 | 0.11 | 96 | 1014.4 |
| 20260906064517 | 59 | 221 | 0.0 | 0.0 | 0.02 | 0.28 | 0.11 | 96 | 1014.4 |
| 20260906064007 | 59 | 221 | 0.0 | 0.0 | 0.02 | 0.28 | 0.11 | 96 | 1014.5 |
| 20260906063510 | 59 | 221 | 0.0 | 0.0 | 0.03 | 0.28 | 0.11 | 96 | 1014.5 |
| 20260906063024 | 59 | 219 | 0.0 | 0.0 | 0.03 | 0.28 | 0.11 | 96 | 1014.4 |
| 20260906062514 | 59 | 218 | 0.0 | 0.0 | 0.04 | 0.28 | 0.11 | 96 | 1014.4 |
| 20260906062012 | 59 | 218 | 0.0 | 0.0 | 0.04 | 0.28 | 0.11 | 96 | 1014.3 |
| 20260906061529 | 59 | 219 | 0.0 | 0.0 | 0.04 | 0.28 | 0.11 | 96 | 1014.3 |
| 20260906061014 | 59 | 219 | 0.0 | 0.0 | 0.04 | 0.28 | 0.11 | 96 | 1014.3 |
| 20260906060523 | 59 | 219 | 0.0 | 0.0 | 0.04 | 0.28 | 0.11 | 96 | 1014.3 |
| 20260906060034 | 59 | 219 | 0.0 | 0.0 | 0.04 | 0.27 | 0.10 | 96 | 1014.3 |
| 20260906055517 | 59 | 219 | 0.0 | 0.0 | 0.04 | 0.27 | 0.10 | 96 | 1014.3 |
| 20260906055014 | 59 | 218 | 0.0 | 0.0 | 0.03 | 0.26 | 0.09 | 96 | 1014.4 |
| 20260906054539 | 59 | 219 | 0.0 | 0.0 | 0.04 | 0.26 | 0.09 | 96 | 1014.3 |
| 20260906054004 | 59 | 219 | 0.0 | 0.0 | 0.04 | 0.26 | 0.09 | 96 | 1014.4 |
| 20260906053506 | 59 | 218 | 0.0 | 0.0 | 0.03 | 0.25 | 0.08 | 95 | 1014.4 |
| 20260906053020 | 59 | 218 | 0.0 | 0.0 | 0.04 | 0.25 | 0.08 | 95 | 1014.5 |
| 20260906052505 | 59 | 229 | 0.0 | 0.0 | 0.03 | 0.24 | 0.07 | 95 | 1014.4 |
| 20260906052004 | 60 | 229 | 0.0 | 0.0 | 0.04 | 0.24 | 0.07 | 95 | 1014.4 |
| 20260906051505 | 60 | 229 | 0.0 | 0.0 | 0.05 | 0.24 | 0.07 | 95 | 1014.4 |
| 20260906051003 | 60 | 229 | 0.0 | 0.0 | 0.06 | 0.24 | 0.07 | 95 | 1014.5 |
| 20260906050503 | 60 | 205 | 0.0 | 0.0 | 0.06 | 0.24 | 0.07 | 95 | 1014.5 |
| 20260906050004 | 60 | 204 | 0.0 | 0.0 | 0.06 | 0.23 | 0.06 | 95 | 1014.4 |
| 20260906045506 | 60 | 204 | 0.0 | 0.0 | 0.07 | 0.23 | 0.06 | 95 | 1014.4 |
| 20260906045003 | 60 | 203 | 0.0 | 0.0 | 0.07 | 0.23 | 0.06 | 95 | 1014.3 |
| 20260906044509 | 60 | 187 | 0.0 | 0.0 | 0.07 | 0.22 | 0.05 | 95 | 1014.3 |
| 20260906044007 | 61 | 176 | 0.0 | 0.0 | 0.10 | 0.22 | 0.05 | 95 | 1014.4 |
| 20260906043504 | 61 | 176 | 0.0 | 0.0 | 0.13 | 0.22 | 0.05 | 95 | 1014.4 |
| 20260906043017 | 61 | 176 | 0.0 | 0.0 | 0.12 | 0.21 | 0.04 | 94 | 1014.5 |
| 20260906042507 | 61 | 176 | 0.0 | 0.0 | 0.14 | 0.21 | 0.04 | 94 | 1014.4 |
| 20260906042010 | 61 | 176 | 0.0 | 0.0 | 0.15 | 0.20 | 0.03 | 94 | 1014.3 |
| 20260906041522 | 61 | 182 | 0.0 | 0.0 | 0.15 | 0.19 | 0.02 | 94 | 1014.4 |
| 20260906041010 | 61 | 182 | 0.0 | 0.0 | 0.16 | 0.18 | 0.01 | 94 | 1014.4 |
| 20260906040503 | 61 | 182 | 0.0 | 0.0 | 0.17 | 0.18 | 0.01 | 93 | 1014.4 |
| 20260906040013 | 61 | 182 | 0.0 | 0.0 | 0.16 | 0.17 | 0.00 | 93 | 1014.3 |
| 20260906035503 | 61 | 182 | 0.0 | 0.0 | 0.15 | 0.16 | 0.16 | 93 | 1014.3 |
| 20260906035004 | 61 | 182 | 0.0 | 0.0 | 0.15 | 0.16 | 0.16 | 93 | 1014.2 |
| 20260906034509 | 62 | 181 | 0.0 | 0.0 | 0.14 | 0.15 | 0.15 | 92 | 1014.1 |
| 20260906034004 | 62 | 181 | 0.0 | 1.0 | 0.11 | 0.12 | 0.12 | 92 | 1014.0 |
| 20260906033504 | 62 | 181 | 0.0 | 1.0 | 0.08 | 0.09 | 0.09 | 92 | 1013.8 |
| 20260906033012 | 62 | 233 | 0.0 | 1.0 | 0.08 | 0.09 | 0.09 | 91 | 1013.8 |
| 20260906032504 | 62 | 4 | 0.0 | 1.0 | 0.06 | 0.07 | 0.07 | 91 | 1013.8 |
| 20260906032006 | 62 | 4 | 0.0 | 1.0 | 0.04 | 0.05 | 0.05 | 90 | 1013.8 |
| 20260906031518 | 63 | 4 | 0.0 | 1.0 | 0.03 | 0.04 | 0.04 | 89 | 1013.8 |
| 20260906031008 | 63 | 158 | 0.0 | 0.0 | 0.01 | 0.02 | 0.02 | 88 | 1013.7 |
| 20260906030511 | 63 | 156 | 0.0 | 0.0 | 0.00 | 0.01 | 0.01 | 87 | 1013.7 |
| 20260906030025 | 63 | 156 | 0.0 | 0.0 | 0.00 | 0.01 | 0.01 | 86 | 1013.6 |
| 20260906025510 | 63 | 156 | 0.0 | 4.0 | 0.00 | 0.01 | 0.01 | 86 | 1013.6 |
| 20260906025003 | 63 | 170 | 0.0 | 4.0 | 0.00 | 0.01 | 0.01 | 86 | 1013.6 |
| 20260906024519 | 63 | 68 | 1.0 | 4.0 | 0.00 | 0.01 | 0.01 | 85 | 1013.6 |
| 20260906024004 | 63 | 135 | 0.0 | 3.0 | 0.00 | 0.01 | 0.01 | 85 | 1013.6 |
| 20260906023505 | 64 | 100 | 0.0 | 1.0 | 0.00 | 0.01 | 0.01 | 85 | 1013.6 |
| 20260906023018 | 64 | 98 | 0.0 | 2.0 | 0.00 | 0.01 | 0.01 | 85 | 1013.6 |
| 20260906022504 | 64 | 96 | 0.0 | 2.0 | 0.00 | 0.01 | 0.01 | 84 | 1013.6 |
| 20260906022006 | 64 | 90 | 0.0 | 2.0 | 0.00 | 0.01 | 0.01 | 84 | 1013.6 |
| 20260906021517 | 64 | 86 | 0.0 | 4.0 | 0.00 | 0.01 | 0.01 | 83 | 1013.7 |
| 20260906021006 | 64 | 96 | 0.0 | 5.0 | 0.00 | 0.01 | 0.01 | 83 | 1013.6 |
| 20260906020508 | 64 | 71 | 2.0 | 5.0 | 0.00 | 0.01 | 0.01 | 83 | 1013.6 |
| 20260906020025 | 65 | 105 | 0.0 | 4.0 | 0.00 | 0.01 | 0.01 | 83 | 1013.5 |
| 20260906015510 | 65 | 86 | 0.0 | 1.0 | 0.00 | 0.01 | 0.01 | 83 | 1013.4 |
| 20260906015011 | 65 | 84 | 0.0 | 3.0 | 0.00 | 0.01 | 0.01 | 82 | 1013.5 |
| 20260906014539 | 65 | 82 | 1.0 | 3.0 | 0.00 | 0.01 | 0.01 | 82 | 1013.4 |
| 20260906014014 | 65 | 231 | 0.0 | 2.0 | 0.00 | 0.01 | 0.01 | 82 | 1013.4 |
| 20260906013503 | 65 | 217 | 0.0 | 2.0 | 0.00 | 0.01 | 0.01 | 82 | 1013.3 |
| 20260906013020 | 65 | 39 | 0.0 | 3.0 | 0.00 | 0.01 | 0.01 | 83 | 1013.4 |
| 20260906012502 | 65 | 73 | 0.0 | 3.0 | 0.00 | 0.01 | 0.01 | 83 | 1013.2 |
| 20260906012003 | 65 | 108 | 1.0 | 3.0 | 0.00 | 0.01 | 0.01 | 82 | 1013.1 |
| 20260906011514 | 65 | 229 | 0.0 | 3.0 | 0.00 | 0.01 | 0.01 | 82 | 1013.0 |
| 20260906011006 | 65 | 186 | 0.0 | 2.0 | 0.00 | 0.01 | 0.01 | 82 | 1013.2 |
| 20260906010508 | 65 | 75 | 0.0 | 2.0 | 0.00 | 0.01 | 0.01 | 82 | 1013.2 |
| 20260906010024 | 65 | 200 | 0.0 | 2.0 | 0.00 | 0.01 | 0.01 | 82 | 1013.1 |
| 20260906005511 | 65 | 276 | 0.0 | 2.0 | 0.00 | 0.01 | 0.01 | 83 | 1013.0 |
| 20260906005011 | 66 | 60 | 0.0 | 3.0 | 0.00 | 0.01 | 0.01 | 83 | 1012.9 |
| 20260906004524 | 66 | 86 | 0.0 | 4.0 | 0.00 | 0.01 | 0.01 | 83 | 1012.9 |
| 20260906004012 | 66 | 124 | 0.0 | 6.0 | 0.00 | 0.01 | 0.01 | 83 | 1013.0 |
| 20260906003513 | 66 | 80 | 1.0 | 6.0 | 0.00 | 0.01 | 0.01 | 84 | 1012.9 |
| 20260906003030 | 66 | 96 | 0.0 | 5.0 | 0.00 | 0.01 | 0.01 | 86 | 1012.9 |
| 20260906002514 | 65 | 100 | 0.0 | 0.0 | 0.00 | 0.01 | 0.01 | 87 | 1012.8 |
| 20260906002016 | 65 | 99 | 0.0 | 1.0 | 0.00 | 0.01 | 0.01 | 87 | 1012.7 |
| 20260906001512 | 65 | 99 | 0.0 | 1.0 | 0.00 | 0.01 | 0.01 | 86 | 1012.7 |
| 20260906001006 | 66 | 91 | 0.0 | 1.0 | 0.00 | 0.01 | 0.01 | 86 | 1012.6 |
| 20260906000506 | 66 | 356 | 0.0 | 0.0 | 0.00 | 0.01 | 0.01 | 85 | 1012.3 |
| 20260906000014 | 66 | 356 | 0.0 | 0.0 | 0.00 | 0.01 | 0.01 | 85 | 1012.4 |
| 20260905235508 | 66 | 356 | 0.0 | 0.0 | 0.00 | 0.01 | 0.01 | 84 | 1012.4 |
| 20260905235008 | 67 | 356 | 0.0 | 1.0 | 0.00 | 0.01 | 0.01 | 84 | 1012.3 |
| 20260905234518 | 67 | 356 | 0.0 | 1.0 | 0.00 | 0.01 | 0.01 | 83 | 1012.2 |
| 20260905234010 | 67 | 356 | 0.0 | 1.0 | 0.00 | 0.01 | 0.01 | 83 | 1012.1 |
| 20260905233510 | 67 | 356 | 0.0 | 1.0 | 0.00 | 0.01 | 0.01 | 82 | 1012.1 |
| 20260905233026 | 68 | 356 | 0.0 | 2.0 | 0.00 | 0.01 | 0.01 | 82 | 1012.0 |
| 20260905232513 | 68 | 356 | 0.0 | 2.0 | 0.00 | 0.01 | 0.01 | 81 | 1012.0 |
| 20260905232012 | 68 | 359 | 0.0 | 1.0 | 0.00 | 0.01 | 0.01 | 81 | 1012.0 |
| 20260905231530 | 69 | 68 | 0.0 | 0.0 | 0.00 | 0.01 | 0.01 | 80 | 1012.1 |
| 20260905231014 | 69 | 68 | 0.0 | 0.0 | 0.00 | 0.01 | 0.01 | 79 | 1012.1 |
| 20260905230514 | 69 | 68 | 0.0 | 0.0 | 0.00 | 0.01 | 0.01 | 78 | 1012.1 |
| 20260905230009 | 69 | 348 | 0.0 | 0.0 | 0.00 | 0.01 | 0.01 | 78 | 1012.0 |
| 20260905225506 | 69 | 348 | 0.0 | 2.0 | 0.00 | 0.01 | 0.01 | 78 | 1011.9 |
| 20260905225007 | 70 | 348 | 0.0 | 2.0 | 0.00 | 0.01 | 0.01 | 77 | 1011.9 |
| 20260905224518 | 70 | 1 | 0.0 | 4.0 | 0.00 | 0.01 | 0.01 | 77 | 1011.8 |
| 20260905224007 | 70 | 5 | 0.0 | 4.0 | 0.00 | 0.01 | 0.01 | 76 | 1011.8 |
| 20260905223510 | 70 | 344 | 2.0 | 5.0 | 0.00 | 0.01 | 0.01 | 75 | 1011.7 |
| 20260905223023 | 70 | 347 | 1.0 | 5.0 | 0.00 | 0.01 | 0.01 | 75 | 1011.8 |
| 20260905222509 | 70 | 347 | 3.0 | 5.0 | 0.00 | 0.01 | 0.01 | 75 | 1011.7 |
| 20260905222013 | 71 | 327 | 3.0 | 5.0 | 0.00 | 0.01 | 0.01 | 74 | 1011.6 |
| 20260905221526 | 71 | 317 | 2.0 | 5.0 | 0.00 | 0.01 | 0.01 | 73 | 1011.5 |
| 20260905221014 | 71 | 326 | 2.0 | 5.0 | 0.00 | 0.01 | 0.01 | 72 | 1011.5 |
| 20260905220515 | 72 | 341 | 2.0 | 5.0 | 0.00 | 0.01 | 0.01 | 72 | 1011.4 |
| 20260905220006 | 72 | 348 | 2.0 | 9.0 | 0.00 | 0.01 | 0.01 | 72 | 1011.5 |
| 20260905215504 | 72 | 360 | 4.0 | 9.0 | 0.00 | 0.01 | 0.01 | 71 | 1011.4 |
| 20260905215003 | 72 | 324 | 3.0 | 8.0 | 0.00 | 0.01 | 0.01 | 70 | 1011.3 |
| 20260905214507 | 73 | 338 | 2.0 | 5.0 | 0.00 | 0.01 | 0.01 | 71 | 1011.2 |
| 20260905214003 | 73 | 283 | 2.0 | 5.0 | 0.00 | 0.01 | 0.01 | 71 | 1011.1 |
| 20260905213503 | 73 | 343 | 2.0 | 4.0 | 0.00 | 0.01 | 0.01 | 71 | 1011.0 |
| 20260905213006 | 72 | 340 | 2.0 | 4.0 | 0.00 | 0.01 | 0.01 | 71 | 1011.0 |
| 20260905212503 | 72 | 300 | 0.0 | 2.0 | 0.00 | 0.01 | 0.01 | 75 | 1011.0 |
| 20260905212003 | 72 | 297 | 0.0 | 0.0 | 0.00 | 0.01 | 0.01 | 76 | 1011.0 |
| 20260905211504 | 72 | 15 | 0.0 | 0.0 | 0.00 | 0.01 | 0.01 | 74 | 1010.9 |
| 20260905211003 | 72 | 99 | 0.0 | 1.0 | 0.00 | 0.01 | 0.01 | 72 | 1010.9 |
| 20260905210503 | 73 | 99 | 0.0 | 1.0 | 0.00 | 0.01 | 0.01 | 72 | 1010.9 |
| 20260905210005 | 73 | 122 | 0.0 | 2.0 | 0.00 | 0.01 | 0.01 | 71 | 1010.8 |
| 20260905205503 | 73 | 86 | 0.0 | 2.0 | 0.00 | 0.01 | 0.01 | 69 | 1010.8 |
| 20260905205005 | 73 | 338 | 0.0 | 1.0 | 0.00 | 0.01 | 0.01 | 71 | 1010.8 |
| 20260905204508 | 73 | 28 | 0.0 | 2.0 | 0.00 | 0.01 | 0.01 | 71 | 1010.8 |
| 20260905204006 | 73 | 19 | 0.0 | 5.0 | 0.00 | 0.01 | 0.01 | 71 | 1010.8 |
| 20260905203504 | 73 | 99 | 0.0 | 6.0 | 0.00 | 0.01 | 0.01 | 70 | 1010.7 |
| 20260905203012 | 73 | 84 | 2.0 | 8.0 | 0.00 | 0.01 | 0.01 | 69 | 1010.7 |
| 20260905202503 | 74 | 92 | 2.0 | 10.0 | 0.00 | 0.01 | 0.01 | 68 | 1010.7 |
| 20260905202004 | 75 | 88 | 2.0 | 10.0 | 0.00 | 0.01 | 0.01 | 66 | 1010.6 |
| 20260905201512 | 76 | 110 | 2.0 | 9.0 | 0.00 | 0.01 | 0.01 | 66 | 1010.6 |
| 20260905201002 | 76 | 49 | 4.0 | 9.0 | 0.00 | 0.01 | 0.01 | 63 | 1010.5 |
| 20260905200502 | 77 | 360 | 5.0 | 9.0 | 0.00 | 0.01 | 0.01 | 61 | 1010.3 |
| 20260905200007 | 77 | 347 | 2.0 | 11.0 | 0.00 | 0.01 | 0.01 | 62 | 1010.2 |
| 20260905195503 | 77 | 313 | 4.0 | 13.0 | 0.00 | 0.01 | 0.01 | 61 | 1010.3 |
| 20260905195006 | 77 | 342 | 3.0 | 13.0 | 0.00 | 0.01 | 0.01 | 63 | 1010.3 |
| 20260905194508 | 77 | 316 | 5.0 | 11.0 | 0.00 | 0.01 | 0.01 | 61 | 1010.3 |
| 20260905194004 | 77 | 353 | 5.0 | 11.0 | 0.00 | 0.01 | 0.01 | 61 | 1010.3 |
| 20260905193503 | 77 | 81 | 3.0 | 10.0 | 0.00 | 0.01 | 0.01 | 61 | 1010.3 |
| 20260905193012 | 77 | 359 | 4.0 | 8.0 | 0.00 | 0.01 | 0.01 | 61 | 1010.2 |
| 20260905192510 | 77 | 359 | 2.0 | 4.0 | 0.00 | 0.01 | 0.01 | 62 | 1010.2 |
| 20260905192003 | 76 | 297 | 2.0 | 5.0 | 0.00 | 0.01 | 0.01 | 65 | 1010.2 |
| 20260905191514 | 75 | 300 | 1.0 | 6.0 | 0.00 | 0.01 | 0.01 | 65 | 1010.3 |
| 20260905191008 | 75 | 306 | 2.0 | 6.0 | 0.00 | 0.01 | 0.01 | 66 | 1010.3 |
| 20260905190503 | 74 | 341 | 2.0 | 3.0 | 0.00 | 0.01 | 0.01 | 67 | 1010.4 |
| 20260905190012 | 74 | 309 | 1.0 | 3.0 | 0.00 | 0.01 | 0.01 | 66 | 1010.4 |
| 20260905185504 | 74 | 338 | 0.0 | 5.0 | 0.00 | 0.01 | 0.01 | 67 | 1010.4 |
| 20260905185003 | 74 | 340 | 1.0 | 5.0 | 0.00 | 0.01 | 0.01 | 65 | 1010.5 |
| 20260905184506 | 75 | 333 | 1.0 | 3.0 | 0.00 | 0.01 | 0.01 | 63 | 1010.4 |
| 20260905184003 | 75 | 354 | 2.0 | 4.0 | 0.00 | 0.01 | 0.01 | 64 | 1010.4 |
| 20260905183503 | 75 | 340 | 1.0 | 8.0 | 0.00 | 0.01 | 0.01 | 64 | 1010.3 |
| 20260905183008 | 75 | 345 | 2.0 | 8.0 | 0.00 | 0.01 | 0.01 | 62 | 1010.3 |
| 20260905182504 | 76 | 341 | 2.0 | 5.0 | 0.00 | 0.01 | 0.01 | 61 | 1010.3 |
| 20260905182004 | 76 | 349 | 3.0 | 5.0 | 0.00 | 0.01 | 0.01 | 58 | 1010.4 |
| 20260905181515 | 76 | 327 | 2.0 | 9.0 | 0.00 | 0.01 | 0.01 | 59 | 1010.4 |
| 20260905181004 | 75 | 346 | 4.0 | 9.0 | 0.00 | 0.01 | 0.01 | 61 | 1010.4 |
| 20260905180507 | 76 | 339 | 3.0 | 8.0 | 0.00 | 0.01 | 0.01 | 63 | 1010.4 |
| 20260905180017 | 76 | 309 | 4.0 | 8.0 | 0.00 | 0.01 | 0.01 | 64 | 1010.3 |
| 20260905175508 | 75 | 354 | 3.0 | 7.0 | 0.00 | 0.01 | 0.01 | 64 | 1010.4 |
| 20260905175008 | 75 | 351 | 2.0 | 7.0 | 0.00 | 0.01 | 0.01 | 65 | 1010.4 |
| 20260905174516 | 76 | 360 | 2.0 | 7.0 | 0.00 | 0.01 | 0.01 | 63 | 1010.5 |
| 20260905174008 | 77 | 8 | 2.0 | 6.0 | 0.00 | 0.01 | 0.01 | 60 | 1010.5 |
| 20260905173504 | 77 | 106 | 1.0 | 4.0 | 0.00 | 0.01 | 0.01 | 62 | 1010.4 |
| 20260905173006 | 75 | 260 | 2.0 | 9.0 | 0.00 | 0.01 | 0.01 | 62 | 1010.4 |
| 20260905172503 | 76 | 1 | 4.0 | 9.0 | 0.00 | 0.01 | 0.01 | 61 | 1010.5 |
| 20260905172002 | 76 | 353 | 2.0 | 7.0 | 0.00 | 0.01 | 0.01 | 60 | 1010.3 |
| 20260905171510 | 76 | 146 | 0.0 | 7.0 | 0.00 | 0.01 | 0.01 | 63 | 1010.3 |
| 20260905171004 | 75 | 345 | 2.0 | 6.0 | 0.00 | 0.01 | 0.01 | 63 | 1010.3 |
| 20260905170505 | 74 | 174 | 2.0 | 10.0 | 0.00 | 0.01 | 0.01 | 65 | 1010.3 |
| 20260905170016 | 74 | 67 | 2.0 | 10.0 | 0.00 | 0.01 | 0.01 | 63 | 1010.4 |
| 20260905165508 | 75 | 300 | 3.0 | 6.0 | 0.00 | 0.01 | 0.01 | 62 | 1010.3 |
| 20260905165011 | 75 | 176 | 1.0 | 5.0 | 0.00 | 0.01 | 0.01 | 64 | 1010.3 |
| 20260905164520 | 74 | 297 | 1.0 | 5.0 | 0.00 | 0.01 | 0.01 | 66 | 1010.4 |
| 20260905164013 | 74 | 352 | 3.0 | 9.0 | 0.00 | 0.01 | 0.01 | 65 | 1010.4 |
| 20260905163507 | 75 | 276 | 3.0 | 9.0 | 0.00 | 0.01 | 0.01 | 64 | 1010.4 |
| 20260905163020 | 76 | 355 | 1.0 | 10.0 | 0.00 | 0.01 | 0.01 | 63 | 1010.5 |
| 20260905162511 | 75 | 246 | 4.0 | 10.0 | 0.00 | 0.01 | 0.01 | 65 | 1010.6 |
| 20260905162005 | 75 | 352 | 2.0 | 9.0 | 0.00 | 0.01 | 0.01 | 63 | 1010.6 |
| 20260905161511 | 74 | 354 | 2.0 | 10.0 | 0.00 | 0.01 | 0.01 | 63 | 1010.7 |
| 20260905161006 | 75 | 342 | 3.0 | 10.0 | 0.00 | 0.01 | 0.01 | 65 | 1010.6 |
| 20260905160504 | 75 | 349 | 1.0 | 6.0 | 0.00 | 0.01 | 0.01 | 63 | 1010.7 |
| 20260905160012 | 76 | 2 | 2.0 | 6.0 | 0.00 | 0.01 | 0.01 | 65 | 1010.7 |
| 20260905155506 | 76 | 94 | 2.0 | 8.0 | 0.00 | 0.01 | 0.01 | 64 | 1010.7 |
| 20260905155009 | 75 | 333 | 0.0 | 8.0 | 0.00 | 0.01 | 0.01 | 64 | 1010.9 |
| 20260905154523 | 75 | 323 | 3.0 | 11.0 | 0.00 | 0.01 | 0.01 | 65 | 1010.8 |
| 20260905154010 | 74 | 345 | 3.0 | 11.0 | 0.00 | 0.01 | 0.01 | 67 | 1010.8 |
| 20260905153513 | 74 | 1 | 4.0 | 11.0 | 0.00 | 0.01 | 0.01 | 68 | 1010.8 |
| 20260905153025 | 73 | 350 | 6.0 | 11.0 | 0.00 | 0.01 | 0.01 | 66 | 1010.8 |
| 20260905152512 | 73 | 44 | 5.0 | 11.0 | 0.00 | 0.01 | 0.01 | 66 | 1010.8 |
| 20260905152010 | 73 | 11 | 3.0 | 11.0 | 0.00 | 0.01 | 0.01 | 69 | 1010.9 |
| 20260905151527 | 72 | 354 | 5.0 | 8.0 | 0.00 | 0.01 | 0.01 | 70 | 1010.9 |
| 20260905151012 | 72 | 346 | 3.0 | 7.0 | 0.00 | 0.01 | 0.01 | 71 | 1011.0 |
| 20260905150515 | 71 | 349 | 2.0 | 12.0 | 0.00 | 0.01 | 0.01 | 72 | 1011.0 |
| 20260905150010 | 71 | 342 | 5.0 | 12.0 | 0.00 | 0.01 | 0.01 | 71 | 1011.0 |
| 20260905145507 | 70 | 348 | 3.0 | 10.0 | 0.00 | 0.01 | 0.01 | 75 | 1011.0 |
| 20260905145006 | 70 | 341 | 3.0 | 8.0 | 0.00 | 0.01 | 0.01 | 74 | 1011.1 |
| 20260905144517 | 70 | 1 | 3.0 | 8.0 | 0.00 | 0.01 | 0.01 | 77 | 1011.1 |
| 20260905144006 | 70 | 279 | 4.0 | 8.0 | 0.00 | 0.01 | 0.01 | 77 | 1011.2 |
| 20260905143510 | 69 | 346 | 2.0 | 8.0 | 0.00 | 0.01 | 0.01 | 77 | 1011.2 |
| 20260905143026 | 69 | 360 | 4.0 | 7.0 | 0.00 | 0.01 | 0.01 | 78 | 1011.1 |
| 20260905142509 | 70 | 356 | 3.0 | 7.0 | 0.00 | 0.01 | 0.01 | 77 | 1011.2 |
| 20260905142013 | 70 | 5 | 3.0 | 9.0 | 0.00 | 0.01 | 0.01 | 77 | 1011.2 |
| 20260905141530 | 69 | 1 | 2.0 | 9.0 | 0.00 | 0.01 | 0.01 | 78 | 1011.3 |
| 20260905141012 | 69 | 343 | 3.0 | 7.0 | 0.00 | 0.01 | 0.01 | 78 | 1011.4 |
| 20260905140512 | 69 | 343 | 2.0 | 8.0 | 0.00 | 0.01 | 0.01 | 79 | 1011.4 |
| 20260905140029 | 69 | 306 | 3.0 | 8.0 | 0.00 | 0.01 | 0.01 | 79 | 1011.6 |
| 20260905135513 | 69 | 356 | 4.0 | 7.0 | 0.00 | 0.01 | 0.01 | 79 | 1011.5 |
| 20260905135013 | 68 | 309 | 1.0 | 7.0 | 0.00 | 0.01 | 0.01 | 82 | 1011.5 |
| 20260905134514 | 67 | 360 | 1.0 | 3.0 | 0.00 | 0.01 | 0.01 | 84 | 1011.5 |
| 20260905134008 | 66 | 328 | 1.0 | 3.0 | 0.00 | 0.01 | 0.01 | 86 | 1011.5 |
| 20260905133509 | 65 | 337 | 1.0 | 3.0 | 0.00 | 0.01 | 0.01 | 91 | 1011.6 |
| 20260905133020 | 64 | 8 | 0.0 | 2.0 | 0.00 | 0.01 | 0.01 | 92 | 1011.5 |
| 20260905132510 | 63 | 70 | 0.0 | 2.0 | 0.00 | 0.01 | 0.01 | 93 | 1011.5 |
| 20260905132011 | 63 | 74 | 0.0 | 2.0 | 0.00 | 0.01 | 0.01 | 93 | 1011.5 |
| 20260905131528 | 63 | 101 | 1.0 | 3.0 | 0.00 | 0.01 | 0.01 | 93 | 1011.6 |
| 20260905131014 | 63 | 93 | 1.0 | 3.0 | 0.00 | 0.01 | 0.01 | 93 | 1011.6 |
| 20260905130516 | 63 | 110 | 0.0 | 2.0 | 0.00 | 0.01 | 0.01 | 92 | 1011.6 |
| 20260905130006 | 63 | 111 | 0.0 | 2.0 | 0.00 | 0.01 | 0.01 | 91 | 1011.5 |
| 20260905125504 | 63 | 338 | 0.0 | 1.0 | 0.00 | 0.01 | 0.01 | 91 | 1011.5 |
| 20260905125006 | 63 | 338 | 0.0 | 1.0 | 0.00 | 0.01 | 0.01 | 92 | 1011.4 |
| 20260905124510 | 63 | 338 | 0.0 | 2.0 | 0.00 | 0.01 | 0.01 | 93 | 1011.4 |
| 20260905124006 | 62 | 356 | 0.0 | 2.0 | 0.00 | 0.01 | 0.01 | 94 | 1011.3 |
| 20260905123506 | 62 | 356 | 0.0 | 0.0 | 0.00 | 0.01 | 0.01 | 95 | 1011.3 |
| 20260905123020 | 62 | 356 | 0.0 | 0.0 | 0.00 | 0.01 | 0.01 | 95 | 1011.4 |
| 20260905122513 | 61 | 355 | 0.0 | 0.0 | 0.00 | 0.01 | 0.01 | 96 | 1011.3 |
| 20260905122010 | 61 | 355 | 0.0 | 0.0 | 0.00 | 0.01 | 0.01 | 96 | 1011.2 |
| 20260905121527 | 60 | 355 | 0.0 | 0.0 | 0.00 | 0.01 | 0.01 | 96 | 1011.2 |
| 20260905121003 | 60 | 352 | 0.0 | 2.0 | 0.00 | 0.01 | 0.01 | 96 | 1011.0 |
| 20260905120503 | 60 | 340 | 0.0 | 3.0 | 0.00 | 0.01 | 0.01 | 96 | 1010.9 |
| 20260905120005 | 60 | 339 | 0.0 | 3.0 | 0.00 | 0.01 | 0.01 | 96 | 1010.9 |
| 20260905115502 | 60 | 94 | 1.0 | 3.0 | 0.00 | 0.01 | 0.01 | 96 | 1011.0 |
| 20260905115006 | 61 | 96 | 0.0 | 1.0 | 0.00 | 0.01 | 0.01 | 97 | 1010.9 |
| 20260905114507 | 61 | 94 | 0.0 | 2.0 | 0.00 | 0.01 | 0.01 | 97 | 1010.8 |
| 20260905114003 | 60 | 94 | 0.0 | 2.0 | 0.00 | 0.01 | 0.01 | 97 | 1010.8 |
| 20260905113504 | 59 | 114 | 0.0 | 1.0 | 0.00 | 0.01 | 0.01 | 97 | 1010.8 |
| 20260905113012 | 58 | 101 | 0.0 | 1.0 | 0.00 | 0.01 | 0.01 | 97 | 1010.7 |
| 20260905112505 | 58 | 101 | 0.0 | 2.0 | 0.00 | 0.01 | 0.01 | 97 | 1010.8 |
| 20260905112013 | 57 | 103 | 1.0 | 2.0 | 0.00 | 0.01 | 0.01 | 97 | 1010.9 |
| 20260905111520 | 57 | 105 | 0.0 | 1.0 | 0.00 | 0.01 | 0.01 | 97 | 1010.8 |
| 20260905111011 | 57 | 105 | 0.0 | 1.0 | 0.00 | 0.01 | 0.01 | 97 | 1010.8 |
| 20260905110514 | 56 | 94 | 0.0 | 1.0 | 0.00 | 0.01 | 0.01 | 97 | 1010.7 |
| 20260905110024 | 56 | 94 | 0.0 | 1.0 | 0.00 | 0.01 | 0.01 | 97 | 1010.6 |
| 20260905105504 | 56 | 94 | 0.0 | 1.0 | 0.00 | 0.01 | 0.01 | 97 | 1010.6 |
| 20260905105007 | 56 | 94 | 0.0 | 1.0 | 0.00 | 0.01 | 0.01 | 97 | 1010.6 |
| 20260905104504 | 55 | 94 | 0.0 | 0.0 | 0.00 | 0.01 | 0.01 | 97 | 1010.4 |
| 20260905104003 | 55 | 94 | 0.0 | 0.0 | 0.00 | 0.01 | 0.01 | 97 | 1010.5 |
| 20260905103504 | 56 | 94 | 0.0 | 0.0 | 0.00 | 0.01 | 0.01 | 97 | 1010.6 |
| 20260905103014 | 56 | 94 | 0.0 | 0.0 | 0.00 | 0.01 | 0.01 | 97 | 1010.4 |
| 20260905102507 | 56 | 94 | 0.0 | 0.0 | 0.00 | 0.01 | 0.01 | 97 | 1010.4 |
| 20260905102005 | 56 | 94 | 0.0 | 0.0 | 0.00 | 0.01 | 0.01 | 97 | 1010.4 |
| 20260905101522 | 56 | 94 | 0.0 | 0.0 | 0.00 | 0.01 | 0.01 | 97 | 1010.4 |
| 20260905101013 | 56 | 94 | 0.0 | 0.0 | 0.01 | 0.01 | 0.01 | 97 | 1010.2 |